sensor_id;sensor_type;location;lat;lon;timestamp;P1;durP1;ratioP1;P2;durP2;ratioP2
29570;SDS011;16814;52.118;11.436;2022-09-13T00:01:57;13.37;;;7.73;;
29570;SDS011;16814;52.118;11.436;2022-09-13T00:04:22;15.18;;;7.65;;
29570;SDS011;16814;52.118;11.436;2022-09-13T00:06:48;16.20;;;7.05;;
29570;SDS011;16814;52.118;11.436;2022-09-13T00:09:13;16.33;;;7.50;;
29570;SDS011;16814;52.118;11.436;2022-09-13T00:11:39;14.20;;;7.57;;
29570;SDS011;16814;52.118;11.436;2022-09-13T00:14:04;11.33;;;7.47;;
29570;SDS011;16814;52.118;11.436;2022-09-13T00:16:30;15.40;;;7.50;;
29570;SDS011;16814;52.118;11.436;2022-09-13T00:18:56;15.05;;;7.60;;
29570;SDS011;16814;52.118;11.436;2022-09-13T00:21:21;11.05;;;7.72;;
29570;SDS011;16814;52.118;11.436;2022-09-13T00:23:49;14.98;;;7.88;;
29570;SDS011;16814;52.118;11.436;2022-09-13T00:26:17;14.10;;;7.47;;
29570;SDS011;16814;52.118;11.436;2022-09-13T00:28:51;17.30;;;8.13;;
29570;SDS011;16814;52.118;11.436;2022-09-13T00:31:18;17.27;;;7.83;;
29570;SDS011;16814;52.118;11.436;2022-09-13T00:33:44;14.30;;;7.80;;
29570;SDS011;16814;52.118;11.436;2022-09-13T00:36:10;12.53;;;7.90;;
29570;SDS011;16814;52.118;11.436;2022-09-13T00:38:36;18.95;;;7.65;;
29570;SDS011;16814;52.118;11.436;2022-09-13T00:41:04;20.30;;;7.97;;
29570;SDS011;16814;52.118;11.436;2022-09-13T00:43:45;12.98;;;7.80;;
29570;SDS011;16814;52.118;11.436;2022-09-13T00:49:00;12.57;;;7.70;;
29570;SDS011;16814;52.118;11.436;2022-09-13T00:51:35;10.10;;;7.47;;
29570;SDS011;16814;52.118;11.436;2022-09-13T00:54:01;14.52;;;7.40;;
29570;SDS011;16814;52.118;11.436;2022-09-13T00:56:30;14.23;;;7.90;;
29570;SDS011;16814;52.118;11.436;2022-09-13T00:59:08;10.43;;;8.00;;
29570;SDS011;16814;52.118;11.436;2022-09-13T01:01:43;15.20;;;8.18;;
29570;SDS011;16814;52.118;11.436;2022-09-13T01:04:12;12.45;;;8.02;;
29570;SDS011;16814;52.118;11.436;2022-09-13T01:06:38;15.60;;;8.40;;
29570;SDS011;16814;52.118;11.436;2022-09-13T01:09:05;14.40;;;7.95;;
29570;SDS011;16814;52.118;11.436;2022-09-13T01:11:47;20.30;;;8.67;;
29570;SDS011;16814;52.118;11.436;2022-09-13T01:14:19;12.88;;;8.07;;
29570;SDS011;16814;52.118;11.436;2022-09-13T01:16:47;19.65;;;8.05;;
29570;SDS011;16814;52.118;11.436;2022-09-13T01:19:13;19.53;;;8.70;;
29570;SDS011;16814;52.118;11.436;2022-09-13T01:21:47;12.05;;;7.78;;
29570;SDS011;16814;52.118;11.436;2022-09-13T01:30:09;18.00;;;8.93;;
29570;SDS011;16814;52.118;11.436;2022-09-13T01:50:18;13.10;;;8.40;;
29570;SDS011;16814;52.118;11.436;2022-09-13T01:52:54;18.83;;;8.45;;
29570;SDS011;16814;52.118;11.436;2022-09-13T01:55:32;14.35;;;8.38;;
29570;SDS011;16814;52.118;11.436;2022-09-13T02:00:47;19.98;;;8.10;;
29570;SDS011;16814;52.118;11.436;2022-09-13T02:03:44;12.83;;;8.47;;
29570;SDS011;16814;52.118;11.436;2022-09-13T02:06:36;21.20;;;8.32;;
29570;SDS011;16814;52.118;11.436;2022-09-13T02:09:14;15.50;;;8.52;;
29570;SDS011;16814;52.118;11.436;2022-09-13T02:11:45;21.90;;;8.77;;
29570;SDS011;16814;52.118;11.436;2022-09-13T02:14:15;13.93;;;8.40;;
29570;SDS011;16814;52.118;11.436;2022-09-13T02:16:52;12.02;;;7.55;;
29570;SDS011;16814;52.118;11.436;2022-09-13T02:19:44;12.02;;;8.43;;
29570;SDS011;16814;52.118;11.436;2022-09-13T02:22:30;14.60;;;8.23;;
29570;SDS011;16814;52.118;11.436;2022-09-13T02:25:04;10.48;;;7.38;;
29570;SDS011;16814;52.118;11.436;2022-09-13T02:27:34;14.75;;;7.70;;
29570;SDS011;16814;52.118;11.436;2022-09-13T02:30:05;14.98;;;7.35;;
29570;SDS011;16814;52.118;11.436;2022-09-13T02:32:34;12.80;;;7.23;;
29570;SDS011;16814;52.118;11.436;2022-09-13T02:35:06;12.73;;;7.47;;
29570;SDS011;16814;52.118;11.436;2022-09-13T02:37:38;9.60;;;6.72;;
29570;SDS011;16814;52.118;11.436;2022-09-13T02:40:07;13.20;;;7.18;;
29570;SDS011;16814;52.118;11.436;2022-09-13T02:42:39;9.50;;;6.53;;
29570;SDS011;16814;52.118;11.436;2022-09-13T02:45:08;14.52;;;7.15;;
29570;SDS011;16814;52.118;11.436;2022-09-13T02:56:35;12.15;;;7.35;;
29570;SDS011;16814;52.118;11.436;2022-09-13T02:59:16;12.10;;;7.30;;
29570;SDS011;16814;52.118;11.436;2022-09-13T03:01:45;11.65;;;7.88;;
29570;SDS011;16814;52.118;11.436;2022-09-13T03:04:18;13.20;;;7.50;;
29570;SDS011;16814;52.118;11.436;2022-09-13T03:06:44;19.42;;;8.52;;
29570;SDS011;16814;52.118;11.436;2022-09-13T03:09:09;12.07;;;7.73;;
29570;SDS011;16814;52.118;11.436;2022-09-13T03:14:25;9.77;;;7.35;;
29570;SDS011;16814;52.118;11.436;2022-09-13T03:17:16;13.88;;;7.72;;
29570;SDS011;16814;52.118;11.436;2022-09-13T03:22:52;15.27;;;7.70;;
29570;SDS011;16814;52.118;11.436;2022-09-13T03:30:49;15.02;;;7.65;;
29570;SDS011;16814;52.118;11.436;2022-09-13T03:33:27;14.48;;;7.45;;
29570;SDS011;16814;52.118;11.436;2022-09-13T03:35:56;15.15;;;6.93;;
29570;SDS011;16814;52.118;11.436;2022-09-13T03:38:38;9.83;;;6.90;;
29570;SDS011;16814;52.118;11.436;2022-09-13T03:41:31;11.77;;;6.97;;
29570;SDS011;16814;52.118;11.436;2022-09-13T03:44:01;13.48;;;7.68;;
29570;SDS011;16814;52.118;11.436;2022-09-13T03:46:34;10.35;;;6.70;;
29570;SDS011;16814;52.118;11.436;2022-09-13T03:49:05;15.95;;;7.07;;
29570;SDS011;16814;52.118;11.436;2022-09-13T03:51:33;11.45;;;6.90;;
29570;SDS011;16814;52.118;11.436;2022-09-13T03:54:02;9.05;;;6.70;;
29570;SDS011;16814;52.118;11.436;2022-09-13T03:56:30;11.93;;;6.70;;
29570;SDS011;16814;52.118;11.436;2022-09-13T03:58:56;9.97;;;6.97;;
29570;SDS011;16814;52.118;11.436;2022-09-13T04:01:22;13.53;;;6.97;;
29570;SDS011;16814;52.118;11.436;2022-09-13T04:03:48;10.55;;;6.60;;
29570;SDS011;16814;52.118;11.436;2022-09-13T04:06:14;9.60;;;6.80;;
29570;SDS011;16814;52.118;11.436;2022-09-13T04:08:40;11.35;;;7.03;;
29570;SDS011;16814;52.118;11.436;2022-09-13T04:11:05;18.33;;;7.73;;
29570;SDS011;16814;52.118;11.436;2022-09-13T04:13:31;15.87;;;7.13;;
29570;SDS011;16814;52.118;11.436;2022-09-13T04:16:00;10.98;;;6.93;;
29570;SDS011;16814;52.118;11.436;2022-09-13T04:18:26;13.25;;;7.38;;
29570;SDS011;16814;52.118;11.436;2022-09-13T04:20:59;9.98;;;6.60;;
29570;SDS011;16814;52.118;11.436;2022-09-13T04:23:26;11.15;;;7.20;;
29570;SDS011;16814;52.118;11.436;2022-09-13T04:25:53;8.48;;;6.32;;
29570;SDS011;16814;52.118;11.436;2022-09-13T04:28:19;11.13;;;6.80;;
29570;SDS011;16814;52.118;11.436;2022-09-13T04:30:46;12.60;;;6.60;;
29570;SDS011;16814;52.118;11.436;2022-09-13T04:33:13;12.02;;;6.70;;
29570;SDS011;16814;52.118;11.436;2022-09-13T04:35:41;10.82;;;6.25;;
29570;SDS011;16814;52.118;11.436;2022-09-13T04:38:06;10.10;;;5.87;;
29570;SDS011;16814;52.118;11.436;2022-09-13T04:40:32;10.43;;;6.40;;
29570;SDS011;16814;52.118;11.436;2022-09-13T04:42:59;9.23;;;5.90;;
29570;SDS011;16814;52.118;11.436;2022-09-13T04:45:25;12.48;;;6.10;;
29570;SDS011;16814;52.118;11.436;2022-09-13T04:47:51;9.00;;;5.80;;
29570;SDS011;16814;52.118;11.436;2022-09-13T04:50:18;13.27;;;6.18;;
29570;SDS011;16814;52.118;11.436;2022-09-13T04:52:44;9.85;;;6.15;;
29570;SDS011;16814;52.118;11.436;2022-09-13T04:55:10;10.60;;;6.43;;
29570;SDS011;16814;52.118;11.436;2022-09-13T04:57:36;10.10;;;6.50;;
29570;SDS011;16814;52.118;11.436;2022-09-13T05:00:02;13.20;;;6.37;;
29570;SDS011;16814;52.118;11.436;2022-09-13T05:02:28;11.95;;;7.57;;
29570;SDS011;16814;52.118;11.436;2022-09-13T05:04:54;13.82;;;7.75;;
29570;SDS011;16814;52.118;11.436;2022-09-13T05:07:20;13.53;;;7.93;;
29570;SDS011;16814;52.118;11.436;2022-09-13T05:09:46;11.93;;;7.97;;
29570;SDS011;16814;52.118;11.436;2022-09-13T05:12:11;13.87;;;8.00;;
29570;SDS011;16814;52.118;11.436;2022-09-13T05:14:37;12.10;;;7.83;;
29570;SDS011;16814;52.118;11.436;2022-09-13T05:17:02;11.75;;;7.80;;
29570;SDS011;16814;52.118;11.436;2022-09-13T05:19:28;12.77;;;7.67;;
29570;SDS011;16814;52.118;11.436;2022-09-13T05:21:54;12.23;;;7.17;;
29570;SDS011;16814;52.118;11.436;2022-09-13T05:24:19;13.15;;;7.10;;
29570;SDS011;16814;52.118;11.436;2022-09-13T05:26:44;14.30;;;7.68;;
29570;SDS011;16814;52.118;11.436;2022-09-13T05:29:10;11.57;;;8.03;;
29570;SDS011;16814;52.118;11.436;2022-09-13T05:31:37;14.27;;;8.07;;
29570;SDS011;16814;52.118;11.436;2022-09-13T05:34:06;12.57;;;7.80;;
29570;SDS011;16814;52.118;11.436;2022-09-13T05:36:34;15.40;;;8.32;;
29570;SDS011;16814;52.118;11.436;2022-09-13T05:39:02;14.25;;;7.95;;
29570;SDS011;16814;52.118;11.436;2022-09-13T05:41:28;11.70;;;7.78;;
29570;SDS011;16814;52.118;11.436;2022-09-13T05:43:54;13.07;;;8.13;;
29570;SDS011;16814;52.118;11.436;2022-09-13T05:46:20;12.83;;;8.00;;
29570;SDS011;16814;52.118;11.436;2022-09-13T05:48:46;17.53;;;9.03;;
29570;SDS011;16814;52.118;11.436;2022-09-13T05:51:16;16.63;;;8.50;;
29570;SDS011;16814;52.118;11.436;2022-09-13T05:53:44;16.02;;;9.43;;
29570;SDS011;16814;52.118;11.436;2022-09-13T05:56:12;11.75;;;7.72;;
29570;SDS011;16814;52.118;11.436;2022-09-13T05:58:39;12.98;;;7.80;;
29570;SDS011;16814;52.118;11.436;2022-09-13T06:01:07;17.20;;;8.23;;
29570;SDS011;16814;52.118;11.436;2022-09-13T06:03:33;20.95;;;8.98;;
29570;SDS011;16814;52.118;11.436;2022-09-13T06:05:59;19.87;;;8.00;;
29570;SDS011;16814;52.118;11.436;2022-09-13T06:08:25;16.13;;;8.40;;
29570;SDS011;16814;52.118;11.436;2022-09-13T06:10:52;15.48;;;8.73;;
29570;SDS011;16814;52.118;11.436;2022-09-13T06:13:21;13.82;;;9.32;;
29570;SDS011;16814;52.118;11.436;2022-09-13T06:15:47;22.95;;;10.25;;
29570;SDS011;16814;52.118;11.436;2022-09-13T06:18:13;17.57;;;9.33;;
29570;SDS011;16814;52.118;11.436;2022-09-13T06:20:38;15.23;;;9.90;;
29570;SDS011;16814;52.118;11.436;2022-09-13T06:23:04;18.53;;;9.77;;
29570;SDS011;16814;52.118;11.436;2022-09-13T06:25:29;14.90;;;9.60;;
29570;SDS011;16814;52.118;11.436;2022-09-13T06:27:55;19.17;;;9.57;;
29570;SDS011;16814;52.118;11.436;2022-09-13T06:30:20;16.40;;;9.60;;
29570;SDS011;16814;52.118;11.436;2022-09-13T06:32:46;16.10;;;9.50;;
29570;SDS011;16814;52.118;11.436;2022-09-13T06:35:12;14.65;;;9.57;;
29570;SDS011;16814;52.118;11.436;2022-09-13T06:37:37;15.55;;;9.48;;
29570;SDS011;16814;52.118;11.436;2022-09-13T06:40:03;16.10;;;9.20;;
29570;SDS011;16814;52.118;11.436;2022-09-13T06:42:32;16.67;;;9.60;;
29570;SDS011;16814;52.118;11.436;2022-09-13T06:44:58;17.52;;;10.90;;
29570;SDS011;16814;52.118;11.436;2022-09-13T06:47:24;15.23;;;10.13;;
29570;SDS011;16814;52.118;11.436;2022-09-13T06:49:49;17.00;;;11.30;;
29570;SDS011;16814;52.118;11.436;2022-09-13T06:52:15;14.88;;;10.13;;
29570;SDS011;16814;52.118;11.436;2022-09-13T06:54:40;16.45;;;9.70;;
29570;SDS011;16814;52.118;11.436;2022-09-13T06:57:06;14.80;;;9.00;;
29570;SDS011;16814;52.118;11.436;2022-09-13T06:59:31;13.07;;;9.60;;
29570;SDS011;16814;52.118;11.436;2022-09-13T07:01:58;12.82;;;9.52;;
29570;SDS011;16814;52.118;11.436;2022-09-13T07:04:24;15.07;;;9.53;;
29570;SDS011;16814;52.118;11.436;2022-09-13T07:06:50;14.70;;;10.27;;
29570;SDS011;16814;52.118;11.436;2022-09-13T07:09:19;13.13;;;9.00;;
29570;SDS011;16814;52.118;11.436;2022-09-13T07:11:46;13.10;;;8.50;;
29570;SDS011;16814;52.118;11.436;2022-09-13T07:14:14;14.82;;;9.63;;
29570;SDS011;16814;52.118;11.436;2022-09-13T07:16:41;14.70;;;9.75;;
29570;SDS011;16814;52.118;11.436;2022-09-13T07:19:10;13.98;;;9.10;;
29570;SDS011;16814;52.118;11.436;2022-09-13T07:21:40;12.45;;;9.40;;
29570;SDS011;16814;52.118;11.436;2022-09-13T07:24:06;17.10;;;10.10;;
29570;SDS011;16814;52.118;11.436;2022-09-13T07:26:32;16.40;;;10.17;;
29570;SDS011;16814;52.118;11.436;2022-09-13T07:28:59;15.35;;;11.07;;
29570;SDS011;16814;52.118;11.436;2022-09-13T07:31:30;14.50;;;10.27;;
29570;SDS011;16814;52.118;11.436;2022-09-13T07:34:07;20.07;;;11.20;;
29570;SDS011;16814;52.118;11.436;2022-09-13T07:36:37;14.45;;;10.50;;
29570;SDS011;16814;52.118;11.436;2022-09-13T07:39:03;17.03;;;9.77;;
29570;SDS011;16814;52.118;11.436;2022-09-13T07:41:30;17.23;;;9.67;;
29570;SDS011;16814;52.118;11.436;2022-09-13T07:43:56;14.88;;;9.85;;
29570;SDS011;16814;52.118;11.436;2022-09-13T07:46:23;16.58;;;9.90;;
29570;SDS011;16814;52.118;11.436;2022-09-13T07:48:54;20.40;;;10.40;;
29570;SDS011;16814;52.118;11.436;2022-09-13T07:51:27;19.02;;;10.50;;
29570;SDS011;16814;52.118;11.436;2022-09-13T07:53:55;17.90;;;9.90;;
29570;SDS011;16814;52.118;11.436;2022-09-13T07:56:23;15.38;;;10.35;;
29570;SDS011;16814;52.118;11.436;2022-09-13T07:58:50;18.80;;;10.55;;
29570;SDS011;16814;52.118;11.436;2022-09-13T08:01:28;21.42;;;10.93;;
29570;SDS011;16814;52.118;11.436;2022-09-13T08:03:59;15.10;;;10.18;;
29570;SDS011;16814;52.118;11.436;2022-09-13T08:06:27;16.67;;;10.50;;
29570;SDS011;16814;52.118;11.436;2022-09-13T08:08:54;16.85;;;11.18;;
29570;SDS011;16814;52.118;11.436;2022-09-13T08:11:24;17.37;;;11.13;;
29570;SDS011;16814;52.118;11.436;2022-09-13T08:14:17;15.77;;;10.20;;
29570;SDS011;16814;52.118;11.436;2022-09-13T08:16:44;18.60;;;10.90;;
29570;SDS011;16814;52.118;11.436;2022-09-13T08:19:11;18.70;;;10.38;;
29570;SDS011;16814;52.118;11.436;2022-09-13T08:21:39;21.63;;;10.70;;
29570;SDS011;16814;52.118;11.436;2022-09-13T08:24:11;15.52;;;9.60;;
29570;SDS011;16814;52.118;11.436;2022-09-13T08:26:39;17.10;;;10.75;;
29570;SDS011;16814;52.118;11.436;2022-09-13T08:29:05;16.33;;;10.73;;
29570;SDS011;16814;52.118;11.436;2022-09-13T08:31:31;18.52;;;9.85;;
29570;SDS011;16814;52.118;11.436;2022-09-13T08:33:57;17.33;;;10.35;;
29570;SDS011;16814;52.118;11.436;2022-09-13T08:36:23;17.35;;;10.05;;
29570;SDS011;16814;52.118;11.436;2022-09-13T08:38:51;16.20;;;8.65;;
29570;SDS011;16814;52.118;11.436;2022-09-13T08:47:39;14.25;;;7.80;;
29570;SDS011;16814;52.118;11.436;2022-09-13T08:49:47;14.83;;;7.63;;
29570;SDS011;16814;52.118;11.436;2022-09-13T08:54:54;11.47;;;7.73;;
29570;SDS011;16814;52.118;11.436;2022-09-13T08:57:30;15.43;;;7.18;;
29570;SDS011;16814;52.118;11.436;2022-09-13T09:03:01;10.13;;;7.30;;
29570;SDS011;16814;52.118;11.436;2022-09-13T09:05:35;11.98;;;7.72;;
29570;SDS011;16814;52.118;11.436;2022-09-13T09:08:14;11.83;;;7.30;;
29570;SDS011;16814;52.118;11.436;2022-09-13T09:10:55;8.57;;;7.07;;
29570;SDS011;16814;52.118;11.436;2022-09-13T09:13:25;11.52;;;7.07;;
29570;SDS011;16814;52.118;11.436;2022-09-13T09:16:00;14.20;;;6.38;;
29570;SDS011;16814;52.118;11.436;2022-09-13T09:18:31;8.25;;;6.15;;
29570;SDS011;16814;52.118;11.436;2022-09-13T09:21:02;11.63;;;6.40;;
29570;SDS011;16814;52.118;11.436;2022-09-13T09:23:37;9.68;;;6.60;;
29570;SDS011;16814;52.118;11.436;2022-09-13T09:26:19;11.40;;;6.50;;
29570;SDS011;16814;52.118;11.436;2022-09-13T09:29:07;8.18;;;6.10;;
29570;SDS011;16814;52.118;11.436;2022-09-13T09:31:49;12.30;;;7.00;;
29570;SDS011;16814;52.118;11.436;2022-09-13T09:37:18;12.23;;;6.75;;
29570;SDS011;16814;52.118;11.436;2022-09-13T09:39:46;12.30;;;7.00;;
29570;SDS011;16814;52.118;11.436;2022-09-13T09:42:16;11.38;;;6.63;;
29570;SDS011;16814;52.118;11.436;2022-09-13T09:44:52;10.13;;;6.85;;
29570;SDS011;16814;52.118;11.436;2022-09-13T09:47:21;10.02;;;6.70;;
29570;SDS011;16814;52.118;11.436;2022-09-13T09:49:50;9.95;;;6.82;;
29570;SDS011;16814;52.118;11.436;2022-09-13T09:58:16;10.47;;;7.20;;
29570;SDS011;16814;52.118;11.436;2022-09-13T10:00:55;10.43;;;7.10;;
29570;SDS011;16814;52.118;11.436;2022-09-13T10:03:29;10.23;;;6.82;;
29570;SDS011;16814;52.118;11.436;2022-09-13T10:06:04;10.27;;;7.13;;
29570;SDS011;16814;52.118;11.436;2022-09-13T10:08:36;12.52;;;7.35;;
29570;SDS011;16814;52.118;11.436;2022-09-13T10:11:04;14.47;;;7.57;;
29570;SDS011;16814;52.118;11.436;2022-09-13T10:13:30;14.13;;;8.32;;
29570;SDS011;16814;52.118;11.436;2022-09-13T10:18:24;12.27;;;7.47;;
29570;SDS011;16814;52.118;11.436;2022-09-13T10:23:45;15.90;;;7.70;;
29570;SDS011;16814;52.118;11.436;2022-09-13T10:26:13;10.27;;;7.60;;
29570;SDS011;16814;52.118;11.436;2022-09-13T10:28:43;12.05;;;7.30;;
29570;SDS011;16814;52.118;11.436;2022-09-13T10:31:14;11.10;;;7.30;;
29570;SDS011;16814;52.118;11.436;2022-09-13T10:33:59;12.52;;;7.43;;
29570;SDS011;16814;52.118;11.436;2022-09-13T10:36:35;11.05;;;7.63;;
29570;SDS011;16814;52.118;11.436;2022-09-13T10:39:12;10.67;;;6.57;;
29570;SDS011;16814;52.118;11.436;2022-09-13T10:41:41;10.70;;;6.23;;
29570;SDS011;16814;52.118;11.436;2022-09-13T10:47:17;10.50;;;6.43;;
29570;SDS011;16814;52.118;11.436;2022-09-13T10:49:47;8.73;;;6.75;;
29570;SDS011;16814;52.118;11.436;2022-09-13T10:52:27;10.45;;;7.32;;
29570;SDS011;16814;52.118;11.436;2022-09-13T10:57:43;12.18;;;7.03;;
29570;SDS011;16814;52.118;11.436;2022-09-13T11:00:10;13.63;;;7.35;;
29570;SDS011;16814;52.118;11.436;2022-09-13T11:05:41;13.25;;;7.47;;
29570;SDS011;16814;52.118;11.436;2022-09-13T11:11:19;14.05;;;7.80;;
29570;SDS011;16814;52.118;11.436;2022-09-13T11:22:24;12.38;;;7.47;;
29570;SDS011;16814;52.118;11.436;2022-09-13T11:30:22;11.52;;;7.45;;
29570;SDS011;16814;52.118;11.436;2022-09-13T11:49:32;9.85;;;6.82;;
29570;SDS011;16814;52.118;11.436;2022-09-13T11:52:08;9.43;;;6.00;;
29570;SDS011;16814;52.118;11.436;2022-09-13T11:54:59;9.45;;;5.60;;
29570;SDS011;16814;52.118;11.436;2022-09-13T11:57:38;10.23;;;5.70;;
29570;SDS011;16814;52.118;11.436;2022-09-13T12:00:23;10.85;;;5.30;;
29570;SDS011;16814;52.118;11.436;2022-09-13T12:03:11;8.15;;;5.32;;
29570;SDS011;16814;52.118;11.436;2022-09-13T12:05:55;8.33;;;5.07;;
29570;SDS011;16814;52.118;11.436;2022-09-13T12:08:28;8.05;;;4.78;;
29570;SDS011;16814;52.118;11.436;2022-09-13T12:13:47;10.23;;;5.00;;
29570;SDS011;16814;52.118;11.436;2022-09-13T12:16:15;7.68;;;4.50;;
29570;SDS011;16814;52.118;11.436;2022-09-13T12:18:47;10.30;;;5.40;;
29570;SDS011;16814;52.118;11.436;2022-09-13T12:21:19;11.23;;;5.18;;
29570;SDS011;16814;52.118;11.436;2022-09-13T12:23:49;9.25;;;5.03;;
29570;SDS011;16814;52.118;11.436;2022-09-13T12:26:30;10.33;;;5.10;;
29570;SDS011;16814;52.118;11.436;2022-09-13T12:29:06;11.45;;;5.22;;
29570;SDS011;16814;52.118;11.436;2022-09-13T12:31:38;8.52;;;4.85;;
29570;SDS011;16814;52.118;11.436;2022-09-13T12:34:08;9.70;;;4.40;;
29570;SDS011;16814;52.118;11.436;2022-09-13T12:36:47;9.95;;;5.43;;
29570;SDS011;16814;52.118;11.436;2022-09-13T12:47:58;8.43;;;5.38;;
29570;SDS011;16814;52.118;11.436;2022-09-13T12:53:46;10.70;;;5.27;;
29570;SDS011;16814;52.118;11.436;2022-09-13T13:01:45;9.50;;;5.55;;
29570;SDS011;16814;52.118;11.436;2022-09-13T13:04:18;8.50;;;5.07;;
29570;SDS011;16814;52.118;11.436;2022-09-13T13:09:38;13.07;;;6.03;;
29570;SDS011;16814;52.118;11.436;2022-09-13T13:12:06;9.38;;;6.10;;
29570;SDS011;16814;52.118;11.436;2022-09-13T13:23:12;8.63;;;5.82;;
29570;SDS011;16814;52.118;11.436;2022-09-13T13:26:00;11.43;;;5.55;;
29570;SDS011;16814;52.118;11.436;2022-09-13T13:33:52;14.03;;;6.20;;
29570;SDS011;16814;52.118;11.436;2022-09-13T13:36:30;9.50;;;6.00;;
29570;SDS011;16814;52.118;11.436;2022-09-13T13:39:11;8.82;;;5.55;;
29570;SDS011;16814;52.118;11.436;2022-09-13T13:41:58;9.00;;;5.85;;
29570;SDS011;16814;52.118;11.436;2022-09-13T13:49:43;7.97;;;5.77;;
29570;SDS011;16814;52.118;11.436;2022-09-13T13:52:34;18.02;;;6.40;;
29570;SDS011;16814;52.118;11.436;2022-09-13T13:55:22;12.52;;;6.05;;
29570;SDS011;16814;52.118;11.436;2022-09-13T13:58:02;11.48;;;5.72;;
29570;SDS011;16814;52.118;11.436;2022-09-13T14:00:32;8.70;;;5.72;;
29570;SDS011;16814;52.118;11.436;2022-09-13T14:10:51;9.53;;;5.93;;
29570;SDS011;16814;52.118;11.436;2022-09-13T14:13:33;7.43;;;5.20;;
29570;SDS011;16814;52.118;11.436;2022-09-13T14:21:34;10.43;;;5.82;;
29570;SDS011;16814;52.118;11.436;2022-09-13T14:24:19;10.15;;;5.90;;
29570;SDS011;16814;52.118;11.436;2022-09-13T14:26:51;9.98;;;5.97;;
29570;SDS011;16814;52.118;11.436;2022-09-13T14:29:21;10.93;;;6.82;;
29570;SDS011;16814;52.118;11.436;2022-09-13T14:31:49;11.43;;;6.18;;
29570;SDS011;16814;52.118;11.436;2022-09-13T14:34:28;11.50;;;5.70;;
29570;SDS011;16814;52.118;11.436;2022-09-13T14:36:57;10.17;;;5.70;;
29570;SDS011;16814;52.118;11.436;2022-09-13T14:39:25;9.10;;;5.53;;
29570;SDS011;16814;52.118;11.436;2022-09-13T14:42:02;9.35;;;6.10;;
29570;SDS011;16814;52.118;11.436;2022-09-13T14:44:31;8.77;;;6.28;;
29570;SDS011;16814;52.118;11.436;2022-09-13T14:47:04;8.03;;;5.60;;
29570;SDS011;16814;52.118;11.436;2022-09-13T14:49:45;10.10;;;6.68;;
29570;SDS011;16814;52.118;11.436;2022-09-13T14:52:20;11.98;;;6.13;;
29570;SDS011;16814;52.118;11.436;2022-09-13T14:54:51;9.10;;;5.85;;
29570;SDS011;16814;52.118;11.436;2022-09-13T14:57:22;10.15;;;6.53;;
29570;SDS011;16814;52.118;11.436;2022-09-13T15:00:05;10.55;;;6.47;;
29570;SDS011;16814;52.118;11.436;2022-09-13T15:02:43;9.68;;;6.20;;
29570;SDS011;16814;52.118;11.436;2022-09-13T15:05:16;10.97;;;6.37;;
29570;SDS011;16814;52.118;11.436;2022-09-13T15:07:43;9.55;;;6.30;;
29570;SDS011;16814;52.118;11.436;2022-09-13T15:18:01;12.60;;;7.43;;
29570;SDS011;16814;52.118;11.436;2022-09-13T15:21:15;11.73;;;6.45;;
29570;SDS011;16814;52.118;11.436;2022-09-13T15:25:54;11.63;;;6.85;;
29570;SDS011;16814;52.118;11.436;2022-09-13T15:28:32;9.93;;;6.75;;
29570;SDS011;16814;52.118;11.436;2022-09-13T15:36:46;7.55;;;5.70;;
29570;SDS011;16814;52.118;11.436;2022-09-13T15:39:19;12.13;;;6.20;;
29570;SDS011;16814;52.118;11.436;2022-09-13T15:41:52;10.68;;;6.72;;
29570;SDS011;16814;52.118;11.436;2022-09-13T15:44:23;13.30;;;7.18;;
29570;SDS011;16814;52.118;11.436;2022-09-13T15:46:53;10.20;;;6.85;;
29570;SDS011;16814;52.118;11.436;2022-09-13T15:49:28;12.27;;;6.53;;
29570;SDS011;16814;52.118;11.436;2022-09-13T15:51:59;12.55;;;6.55;;
29570;SDS011;16814;52.118;11.436;2022-09-13T15:54:30;10.43;;;6.45;;
29570;SDS011;16814;52.118;11.436;2022-09-13T15:57:05;10.13;;;6.50;;
29570;SDS011;16814;52.118;11.436;2022-09-13T15:59:33;10.52;;;6.82;;
29570;SDS011;16814;52.118;11.436;2022-09-13T16:01:58;10.55;;;6.85;;
29570;SDS011;16814;52.118;11.436;2022-09-13T16:04:24;14.20;;;6.90;;
29570;SDS011;16814;52.118;11.436;2022-09-13T16:06:50;10.88;;;6.90;;
29570;SDS011;16814;52.118;11.436;2022-09-13T16:11:43;21.30;;;8.05;;
29570;SDS011;16814;52.118;11.436;2022-09-13T16:14:09;19.60;;;7.35;;
29570;SDS011;16814;52.118;11.436;2022-09-13T16:16:34;11.77;;;6.83;;
29570;SDS011;16814;52.118;11.436;2022-09-13T16:19:00;13.13;;;6.70;;
29570;SDS011;16814;52.118;11.436;2022-09-13T16:21:25;13.50;;;7.20;;
29570;SDS011;16814;52.118;11.436;2022-09-13T16:23:51;13.15;;;7.40;;
29570;SDS011;16814;52.118;11.436;2022-09-13T16:26:16;13.27;;;7.50;;
29570;SDS011;16814;52.118;11.436;2022-09-13T16:28:42;13.07;;;7.47;;
29570;SDS011;16814;52.118;11.436;2022-09-13T16:31:07;12.97;;;8.03;;
29570;SDS011;16814;52.118;11.436;2022-09-13T16:33:33;11.90;;;7.93;;
29570;SDS011;16814;52.118;11.436;2022-09-13T16:35:58;12.87;;;7.30;;
29570;SDS011;16814;52.118;11.436;2022-09-13T16:38:24;10.50;;;8.30;;
29570;SDS011;16814;52.118;11.436;2022-09-13T16:40:49;18.38;;;9.00;;
29570;SDS011;16814;52.118;11.436;2022-09-13T16:43:16;13.10;;;8.38;;
29570;SDS011;16814;52.118;11.436;2022-09-13T16:45:42;14.03;;;8.40;;
29570;SDS011;16814;52.118;11.436;2022-09-13T16:48:24;11.63;;;7.97;;
29570;SDS011;16814;52.118;11.436;2022-09-13T16:50:49;11.30;;;7.55;;
29570;SDS011;16814;52.118;11.436;2022-09-13T16:53:16;11.43;;;7.60;;
29570;SDS011;16814;52.118;11.436;2022-09-13T16:55:41;12.57;;;8.13;;
29570;SDS011;16814;52.118;11.436;2022-09-13T16:58:09;10.07;;;7.35;;
29570;SDS011;16814;52.118;11.436;2022-09-13T17:00:35;12.70;;;7.68;;
29570;SDS011;16814;52.118;11.436;2022-09-13T17:03:00;11.87;;;8.10;;
29570;SDS011;16814;52.118;11.436;2022-09-13T17:05:26;10.63;;;7.37;;
29570;SDS011;16814;52.118;11.436;2022-09-13T17:07:51;11.70;;;7.50;;
29570;SDS011;16814;52.118;11.436;2022-09-13T17:10:17;10.75;;;7.40;;
29570;SDS011;16814;52.118;11.436;2022-09-13T17:12:43;10.77;;;7.00;;
29570;SDS011;16814;52.118;11.436;2022-09-13T17:15:09;10.73;;;6.93;;
29570;SDS011;16814;52.118;11.436;2022-09-13T17:17:34;10.23;;;7.15;;
29570;SDS011;16814;52.118;11.436;2022-09-13T17:20:02;12.17;;;6.90;;
29570;SDS011;16814;52.118;11.436;2022-09-13T17:22:34;9.95;;;6.97;;
29570;SDS011;16814;52.118;11.436;2022-09-13T17:25:00;14.57;;;7.13;;
29570;SDS011;16814;52.118;11.436;2022-09-13T17:27:26;10.32;;;7.05;;
29570;SDS011;16814;52.118;11.436;2022-09-13T17:29:52;9.67;;;7.10;;
29570;SDS011;16814;52.118;11.436;2022-09-13T17:32:17;10.65;;;6.75;;
29570;SDS011;16814;52.118;11.436;2022-09-13T17:34:44;12.05;;;7.28;;
29570;SDS011;16814;52.118;11.436;2022-09-13T17:37:09;10.93;;;6.95;;
29570;SDS011;16814;52.118;11.436;2022-09-13T17:39:35;13.83;;;6.50;;
29570;SDS011;16814;52.118;11.436;2022-09-13T17:42:00;12.73;;;7.20;;
29570;SDS011;16814;52.118;11.436;2022-09-13T17:44:26;12.02;;;7.18;;
29570;SDS011;16814;52.118;11.436;2022-09-13T17:46:52;8.82;;;6.80;;
29570;SDS011;16814;52.118;11.436;2022-09-13T17:49:17;16.37;;;7.60;;
29570;SDS011;16814;52.118;11.436;2022-09-13T17:51:43;15.85;;;6.95;;
29570;SDS011;16814;52.118;11.436;2022-09-13T17:54:09;14.57;;;7.27;;